Time;durP1;ratioP1;P1;durP2;ratioP2;P2;SDS_P1;SDS_P2;PMS_P1;PMS_P2;Temp;Humidity;BMP_temperature;BMP_pressure;BME280_temperature;BME280_humidity;BME280_pressure;Samples;Min_cycle;Max_cycle;Signal;HPM_P1;HPM_P2
2020/12/28 00:01:10;;;;;;;2.70;0.80;;;8.80;99.30;;;;;;5070911;28;20208;-63
2020/12/28 00:03:36;;;;;;;27.10;20.77;;;8.80;99.70;;;;;;5070012;28;20201;-64
2020/12/28 00:06:03;;;;;;;6.17;4.33;;;8.80;99.80;;;;;;5070687;28;20228;-64
2020/12/28 00:08:29;;;;;;;1.40;1.07;;;8.90;99.90;;;;;;5070492;28;20221;-63
2020/12/28 00:10:55;;;;;;;0.73;0.73;;;8.80;99.90;;;;;;5070691;28;20216;-63
2020/12/28 00:13:21;;;;;;;0.53;0.53;;;8.90;99.90;;;;;;5070974;28;20208;-64
2020/12/28 00:15:48;;;;;;;0.70;0.50;;;8.80;99.90;;;;;;5070098;28;20232;-63
2020/12/28 00:18:14;;;;;;;0.90;0.63;;;8.80;99.90;;;;;;5070174;28;20197;-63
2020/12/28 00:20:40;;;;;;;1.20;0.63;;;8.70;99.90;;;;;;5070394;28;20212;-64
2020/12/28 00:23:07;;;;;;;0.60;0.47;;;8.80;99.90;;;;;;5074071;28;20526;-64
2020/12/28 00:25:33;;;;;;;0.57;0.43;;;8.80;99.90;;;;;;5076453;28;20224;-64
2020/12/28 00:27:59;;;;;;;0.90;0.60;;;8.90;99.90;;;;;;5077060;28;20224;-64
2020/12/28 00:30:26;;;;;;;0.77;0.50;;;8.80;99.90;;;;;;5076743;28;20579;-67
2020/12/28 00:32:53;;;;;;;0.90;0.60;;;8.70;99.90;;;;;;5076926;28;20295;-64
2020/12/28 00:35:19;;;;;;;1.97;0.60;;;8.80;99.90;;;;;;5076637;28;20220;-64
2020/12/28 00:37:45;;;;;;;0.80;0.60;;;8.80;99.90;;;;;;5076360;28;20201;-64
2020/12/28 00:40:11;;;;;;;0.80;0.73;;;8.80;99.90;;;;;;5076708;28;20262;-64
2020/12/28 00:42:38;;;;;;;0.63;0.50;;;8.80;99.90;;;;;;5076810;28;20672;-64
2020/12/28 00:45:05;;;;;;;0.73;0.63;;;8.80;99.90;;;;;;5076443;28;20225;-63
2020/12/28 00:47:31;;;;;;;1.97;0.60;;;8.80;99.90;;;;;;5076562;28;20684;-64
2020/12/28 00:49:58;;;;;;;0.60;0.60;;;8.80;99.90;;;;;;5076362;28;20365;-65
2020/12/28 00:52:24;;;;;;;0.50;0.40;;;8.80;99.90;;;;;;5076626;28;20212;-63
2020/12/28 00:54:50;;;;;;;1.50;0.53;;;8.80;99.90;;;;;;5076488;28;20220;-64
2020/12/28 00:57:16;;;;;;;2.90;0.47;;;8.80;99.90;;;;;;5076984;28;20201;-63
2020/12/28 00:59:43;;;;;;;0.80;0.70;;;8.90;99.90;;;;;;5076614;28;20494;-63
2020/12/28 01:02:09;;;;;;;1.07;0.90;;;8.90;99.90;;;;;;5076645;28;20266;-64
2020/12/28 01:04:35;;;;;;;0.90;0.60;;;8.90;99.90;;;;;;5076139;28;20574;-65
2020/12/28 01:07:02;;;;;;;0.57;0.50;;;8.90;99.90;;;;;;5076394;28;20298;-64
2020/12/28 01:09:28;;;;;;;0.93;0.60;;;9.00;99.90;;;;;;5076447;28;20200;-64
2020/12/28 01:11:56;;;;;;;0.87;0.60;;;8.90;99.90;;;;;;5076703;28;20201;-63
2020/12/28 01:14:22;;;;;;;0.53;0.53;;;8.90;99.90;;;;;;5076020;28;20283;-63
2020/12/28 01:16:48;;;;;;;0.60;0.60;;;9.00;99.90;;;;;;5076417;28;20205;-63
2020/12/28 01:19:14;;;;;;;0.40;0.40;;;9.00;99.90;;;;;;5076326;28;20204;-64
2020/12/28 01:21:41;;;;;;;1.03;0.50;;;9.10;99.90;;;;;;5076362;28;20410;-64
2020/12/28 01:24:08;;;;;;;0.53;0.50;;;9.10;99.90;;;;;;5076351;28;20225;-64
2020/12/28 01:26:34;;;;;;;1.00;0.70;;;9.10;99.90;;;;;;5076663;28;20625;-66
2020/12/28 01:29:00;;;;;;;0.90;0.70;;;9.10;99.90;;;;;;5076315;28;20251;-65
2020/12/28 01:31:26;;;;;;;0.80;0.50;;;9.00;99.90;;;;;;5076706;28;20251;-65
2020/12/28 01:33:52;;;;;;;0.87;0.80;;;9.00;99.90;;;;;;5074085;28;20224;-65
2020/12/28 01:36:19;;;;;;;0.60;0.60;;;9.00;99.90;;;;;;5073010;28;20575;-64
2020/12/28 01:38:45;;;;;;;1.27;0.93;;;8.90;99.90;;;;;;5073490;28;20250;-64
2020/12/28 01:41:12;;;;;;;1.40;1.00;;;8.70;99.90;;;;;;5073156;28;20684;-64
2020/12/28 01:43:38;;;;;;;0.70;0.60;;;8.70;99.90;;;;;;5072633;28;20704;-63
2020/12/28 01:46:05;;;;;;;0.87;0.60;;;8.80;99.90;;;;;;5073542;28;20216;-64
2020/12/28 01:48:31;;;;;;;0.57;0.57;;;8.80;99.90;;;;;;5072818;28;20216;-65
2020/12/28 01:50:58;;;;;;;0.60;0.50;;;8.80;99.90;;;;;;5073046;28;20223;-64
2020/12/28 01:53:25;;;;;;;0.77;0.47;;;8.90;99.90;;;;;;5072947;28;20204;-64
2020/12/28 01:55:56;;;;;;;0.37;0.37;;;8.90;99.90;;;;;;5073195;28;20636;-64
2020/12/28 01:58:23;;;;;;;0.40;0.30;;;8.90;99.90;;;;;;5073374;28;20204;-64
2020/12/28 02:00:49;;;;;;;0.53;0.40;;;8.90;99.90;;;;;;5072798;28;20220;-64
2020/12/28 02:03:16;;;;;;;1.53;0.50;;;8.90;99.90;;;;;;5072909;28;20208;-63
2020/12/28 02:05:42;;;;;;;0.40;0.40;;;9.00;99.90;;;;;;5072776;28;20678;-64
2020/12/28 02:08:08;;;;;;;1.17;0.50;;;9.00;99.90;;;;;;5072456;28;20229;-64
2020/12/28 02:10:34;;;;;;;0.67;0.50;;;8.80;99.90;;;;;;5072949;28;20208;-64
2020/12/28 02:13:00;;;;;;;1.23;0.50;;;8.90;99.90;;;;;;5072712;28;20205;-64
2020/12/28 02:15:27;;;;;;;0.83;0.50;;;9.10;99.90;;;;;;5071972;28;20244;-65
2020/12/28 02:17:54;;;;;;;0.40;0.40;;;9.10;99.90;;;;;;5071913;28;20213;-64
2020/12/28 02:20:20;;;;;;;0.43;0.40;;;9.10;99.90;;;;;;5072477;28;20204;-63
2020/12/28 02:22:47;;;;;;;1.07;0.50;;;9.20;99.90;;;;;;5072312;28;20205;-64
2020/12/28 02:25:13;;;;;;;0.97;0.50;;;9.20;99.90;;;;;;5071795;28;20252;-64
2020/12/28 02:27:39;;;;;;;0.40;0.40;;;9.30;99.90;;;;;;5072029;28;20598;-64
2020/12/28 02:30:06;;;;;;;0.60;0.40;;;9.30;99.90;;;;;;5071934;28;20208;-64
2020/12/28 02:32:32;;;;;;;0.70;0.40;;;9.30;99.90;;;;;;5071899;28;20219;-64
2020/12/28 02:34:58;;;;;;;1.23;0.40;;;9.30;99.90;;;;;;5071711;28;20225;-64
2020/12/28 02:37:24;;;;;;;2.87;0.60;;;9.30;99.90;;;;;;5072178;28;20259;-63
2020/12/28 02:39:51;;;;;;;0.50;0.30;;;9.20;99.90;;;;;;5071889;28;20205;-63
2020/12/28 02:42:18;;;;;;;0.40;0.40;;;9.10;99.90;;;;;;5072345;28;20568;-64
2020/12/28 02:44:44;;;;;;;0.70;0.40;;;9.10;99.90;;;;;;5071353;28;20282;-64
2020/12/28 02:47:10;;;;;;;0.30;0.30;;;9.00;99.90;;;;;;5071675;28;20220;-64
2020/12/28 02:49:36;;;;;;;0.50;0.30;;;8.90;99.90;;;;;;5071413;28;20236;-64
2020/12/28 02:52:02;;;;;;;1.57;0.40;;;8.80;99.90;;;;;;5071420;28;20725;-64
2020/12/28 02:54:29;;;;;;;0.80;0.40;;;8.80;99.90;;;;;;5071218;28;20231;-64
2020/12/28 02:56:56;;;;;;;0.60;0.30;;;8.80;99.90;;;;;;5071495;28;20205;-63
2020/12/28 02:59:22;;;;;;;0.60;0.27;;;8.80;99.90;;;;;;5071040;28;20811;-64
2020/12/28 03:01:48;;;;;;;0.63;0.30;;;8.60;99.90;;;;;;5071525;28;20201;-64
2020/12/28 03:04:15;;;;;;;0.47;0.30;;;8.60;99.90;;;;;;5071092;28;20231;-64
2020/12/28 03:06:41;;;;;;;0.50;0.37;;;8.50;99.90;;;;;;5071458;28;20217;-64
2020/12/28 03:09:07;;;;;;;0.77;0.40;;;8.50;99.90;;;;;;5071121;28;20225;-64
2020/12/28 03:11:35;;;;;;;0.43;0.30;;;8.50;99.90;;;;;;5071275;28;20648;-64
2020/12/28 03:14:03;;;;;;;0.10;0.10;;;8.50;99.90;;;;;;5071508;28;20651;-65
2020/12/28 03:16:29;;;;;;;0.30;0.30;;;8.50;99.90;;;;;;5071539;28;20208;-65
2020/12/28 03:18:55;;;;;;;0.40;0.30;;;8.50;99.90;;;;;;5071153;28;20696;-65
2020/12/28 03:21:21;;;;;;;1.00;0.57;;;8.50;99.90;;;;;;5071400;28;20209;-64
2020/12/28 03:23:47;;;;;;;0.33;0.20;;;8.40;99.90;;;;;;5070617;28;20212;-65
2020/12/28 03:26:13;;;;;;;1.17;0.80;;;8.40;99.90;;;;;;5071106;28;20212;-64
2020/12/28 03:28:39;;;;;;;0.70;0.23;;;8.50;99.90;;;;;;5070886;28;20220;-64
2020/12/28 03:31:07;;;;;;;0.47;0.40;;;8.50;99.90;;;;;;5071389;28;20205;-64
2020/12/28 03:33:34;;;;;;;0.27;0.27;;;8.60;99.90;;;;;;5070705;28;20253;-65
2020/12/28 03:36:00;;;;;;;0.60;0.40;;;8.60;99.90;;;;;;5071033;28;20236;-64
2020/12/28 03:38:26;;;;;;;1.17;0.30;;;8.60;99.90;;;;;;5070743;28;20616;-63
2020/12/28 03:40:52;;;;;;;0.57;0.30;;;8.50;99.90;;;;;;5070716;28;20258;-64
2020/12/28 03:43:19;;;;;;;0.97;0.30;;;8.50;99.90;;;;;;5070585;28;20212;-64
2020/12/28 03:45:45;;;;;;;2.00;0.30;;;8.50;99.90;;;;;;5070648;28;20229;-65
2020/12/28 03:48:12;;;;;;;0.57;0.30;;;8.50;99.90;;;;;;5070626;28;20225;-64
2020/12/28 03:50:38;;;;;;;0.50;0.23;;;8.40;99.90;;;;;;5070503;28;20209;-64
2020/12/28 03:53:04;;;;;;;0.20;0.20;;;8.40;99.90;;;;;;5070589;28;20443;-64
2020/12/28 03:55:30;;;;;;;3.33;0.30;;;8.40;99.90;;;;;;5070133;28;20236;-64
2020/12/28 03:57:56;;;;;;;0.40;0.30;;;8.50;99.90;;;;;;5069321;28;20617;-63
2020/12/28 04:00:23;;;;;;;0.73;0.33;;;8.50;99.90;;;;;;5070698;28;20262;-64
2020/12/28 04:02:49;;;;;;;2.00;0.50;;;8.50;99.90;;;;;;5070466;28;20213;-64
2020/12/28 04:05:16;;;;;;;1.20;0.40;;;8.50;99.90;;;;;;5070156;28;20221;-64
2020/12/28 04:07:43;;;;;;;1.03;0.50;;;8.50;99.90;;;;;;5070061;28;20707;-63
2020/12/28 04:10:09;;;;;;;1.53;1.27;;;8.50;99.90;;;;;;5070363;28;20212;-64
2020/12/28 04:12:35;;;;;;;1.80;1.33;;;8.50;99.90;;;;;;5070626;28;20209;-64
2020/12/28 04:15:01;;;;;;;0.50;0.50;;;8.50;99.90;;;;;;5070103;28;20236;-64
2020/12/28 04:17:27;;;;;;;2.47;0.20;;;8.50;99.90;;;;;;5070409;28;20209;-64
2020/12/28 04:19:54;;;;;;;1.20;0.47;;;8.40;99.90;;;;;;5069968;28;20281;-64
2020/12/28 04:22:20;;;;;;;0.30;0.30;;;8.50;99.90;;;;;;5070321;28;20281;-64
2020/12/28 04:24:47;;;;;;;0.33;0.33;;;8.50;99.90;;;;;;5069651;28;20642;-65
2020/12/28 04:27:13;;;;;;;0.63;0.43;;;8.50;99.90;;;;;;5070520;28;20537;-65
2020/12/28 04:29:39;;;;;;;0.73;0.30;;;8.50;99.90;;;;;;5070053;28;20225;-65
2020/12/28 04:32:05;;;;;;;0.30;0.30;;;8.40;99.90;;;;;;5070174;28;20672;-64
2020/12/28 04:34:31;;;;;;;0.90;0.20;;;8.40;99.90;;;;;;5069640;28;20731;-65
2020/12/28 04:36:57;;;;;;;0.27;0.27;;;8.20;99.90;;;;;;5070108;28;20666;-64
2020/12/28 04:39:24;;;;;;;0.93;0.47;;;8.20;99.90;;;;;;5069813;28;20197;-64
2020/12/28 04:41:51;;;;;;;0.50;0.30;;;8.20;99.90;;;;;;5070357;28;20228;-64
2020/12/28 04:44:17;;;;;;;1.07;0.67;;;8.30;99.90;;;;;;5069911;28;20235;-65
2020/12/28 04:46:44;;;;;;;0.87;0.40;;;8.30;99.90;;;;;;5070338;28;20205;-65
2020/12/28 04:49:10;;;;;;;0.93;0.40;;;8.40;99.90;;;;;;5069679;28;20236;-64
2020/12/28 04:51:37;;;;;;;0.60;0.40;;;8.40;99.90;;;;;;5070454;28;20205;-63
2020/12/28 04:54:03;;;;;;;3.70;0.40;;;8.40;99.90;;;;;;5069438;28;20236;-64
2020/12/28 04:56:30;;;;;;;1.33;0.47;;;8.50;99.90;;;;;;5070300;28;20278;-65
2020/12/28 04:58:56;;;;;;;1.77;0.47;;;8.50;99.90;;;;;;5069877;28;20204;-64
2020/12/28 05:01:22;;;;;;;0.10;0.10;;;8.60;99.90;;;;;;5070028;28;20205;-64
2020/12/28 05:03:50;;;;;;;1.03;0.40;;;8.60;99.90;;;;;;5069699;28;20217;-64
2020/12/28 05:06:16;;;;;;;1.40;0.30;;;8.50;99.90;;;;;;5069988;28;20233;-64
2020/12/28 05:08:43;;;;;;;0.97;0.90;;;8.50;99.90;;;;;;5070671;28;20318;-64
2020/12/28 05:11:12;;;;;;;0.87;0.40;;;8.50;99.90;;;;;;5073859;28;20243;-64
2020/12/28 05:13:39;;;;;;;0.43;0.20;;;8.50;99.90;;;;;;5073282;28;20204;-64
2020/12/28 05:16:06;;;;;;;0.20;0.20;;;8.50;99.90;;;;;;5073777;28;20213;-64
2020/12/28 05:18:33;;;;;;;0.40;0.30;;;8.50;99.90;;;;;;5073218;28;20209;-64
2020/12/28 05:20:59;;;;;;;0.50;0.30;;;8.50;99.90;;;;;;5073512;28;20295;-65
2020/12/28 05:23:27;;;;;;;0.43;0.30;;;8.50;99.90;;;;;;5073161;28;20241;-65
2020/12/28 05:25:53;;;;;;;0.30;0.27;;;8.50;99.90;;;;;;5073299;28;20267;-65
2020/12/28 05:28:22;;;;;;;0.30;0.30;;;8.50;99.90;;;;;;5073069;28;20275;-64
2020/12/28 05:30:50;;;;;;;0.57;0.47;;;8.50;99.90;;;;;;5073489;28;20212;-63
2020/12/28 05:33:17;;;;;;;0.70;0.40;;;8.50;99.90;;;;;;5073534;28;20271;-65
2020/12/28 05:35:44;;;;;;;0.30;0.30;;;8.60;99.90;;;;;;5073023;28;20593;-65
2020/12/28 05:38:12;;;;;;;0.53;0.40;;;8.50;99.90;;;;;;5073387;28;20212;-64
2020/12/28 05:40:38;;;;;;;0.47;0.40;;;8.60;99.90;;;;;;5073662;28;20209;-65
2020/12/28 05:43:05;;;;;;;0.60;0.20;;;8.60;99.90;;;;;;5073513;28;20204;-63
2020/12/28 05:45:32;;;;;;;0.47;0.47;;;8.70;99.90;;;;;;5072772;28;20236;-65
2020/12/28 05:48:00;;;;;;;0.60;0.50;;;8.70;99.90;;;;;;5072752;28;20275;-64
2020/12/28 05:50:29;;;;;;;0.70;0.20;;;8.70;99.90;;;;;;5073176;28;20560;-64
2020/12/28 05:52:57;;;;;;;0.50;0.30;;;8.70;99.90;;;;;;5073169;28;20294;-64
2020/12/28 05:55:25;;;;;;;0.73;0.33;;;8.60;99.90;;;;;;5072685;28;20231;-65
2020/12/28 05:57:53;;;;;;;0.40;0.40;;;8.50;99.90;;;;;;5072478;28;20560;-64
2020/12/28 06:00:19;;;;;;;0.23;0.23;;;8.60;99.90;;;;;;5072806;28;20668;-64
2020/12/28 06:02:46;;;;;;;0.40;0.23;;;8.60;99.90;;;;;;5072422;28;20205;-64
2020/12/28 06:05:14;;;;;;;1.23;0.40;;;8.50;99.90;;;;;;5072590;28;20232;-64
2020/12/28 06:07:41;;;;;;;2.80;1.00;;;8.60;99.90;;;;;;5072363;28;20296;-64
2020/12/28 06:10:08;;;;;;;0.57;0.37;;;8.60;99.90;;;;;;5072384;28;20209;-65
2020/12/28 06:12:34;;;;;;;1.27;1.00;;;8.60;99.90;;;;;;5072506;28;20200;-64
2020/12/28 06:15:01;;;;;;;0.40;0.30;;;8.60;99.90;;;;;;5071879;28;20236;-64
2020/12/28 06:17:34;;;;;;;0.77;0.73;;;8.60;99.90;;;;;;5072228;28;20275;-65
2020/12/28 06:20:02;;;;;;;1.00;0.50;;;8.60;99.90;;;;;;5071945;28;20212;-63
2020/12/28 06:22:29;;;;;;;1.50;0.70;;;8.70;99.90;;;;;;5072399;28;20209;-65
2020/12/28 06:24:57;;;;;;;1.00;0.37;;;8.60;99.90;;;;;;5071665;28;20259;-64
2020/12/28 06:27:28;;;;;;;0.33;0.30;;;8.50;99.90;;;;;;5072360;28;20307;-64
2020/12/28 06:29:54;;;;;;;2.03;1.67;;;8.60;99.90;;;;;;5071676;28;20255;-64
2020/12/28 06:32:20;;;;;;;2.53;1.57;;;8.50;99.90;;;;;;5071958;28;20664;-64
2020/12/28 06:34:59;;;;;;;1.57;0.77;;;8.50;99.90;;;;;;5071778;28;20225;-64
2020/12/28 06:37:26;;;;;;;1.07;0.77;;;8.50;99.90;;;;;;5072085;28;20208;-64
2020/12/28 06:39:57;;;;;;;1.10;0.97;;;8.50;99.90;;;;;;5071920;28;20262;-64
2020/12/28 06:42:24;;;;;;;0.57;0.50;;;8.50;99.90;;;;;;5072066;28;20304;-63
2020/12/28 06:44:50;;;;;;;1.53;0.80;;;8.50;99.90;;;;;;5072937;28;20285;-64
2020/12/28 06:47:18;;;;;;;2.70;1.43;;;8.50;99.90;;;;;;5073564;28;20208;-64
2020/12/28 06:49:45;;;;;;;2.57;1.50;;;8.60;99.90;;;;;;5073186;28;20723;-64
2020/12/28 06:52:11;;;;;;;1.50;0.70;;;8.50;99.90;;;;;;5073800;28;20205;-64
2020/12/28 06:54:37;;;;;;;0.80;0.60;;;8.30;99.90;;;;;;5071696;28;20239;-64
2020/12/28 06:57:05;;;;;;;3.87;1.13;;;8.40;99.90;;;;;;5071678;28;20213;-64
2020/12/28 06:59:32;;;;;;;2.40;1.50;;;8.20;99.90;;;;;;5071468;28;20201;-64
2020/12/28 07:01:59;;;;;;;5.03;2.23;;;8.30;99.90;;;;;;5071640;28;20205;-64
2020/12/28 07:04:26;;;;;;;1.10;0.77;;;8.30;99.90;;;;;;5071151;28;20809;-64
2020/12/28 07:06:58;;;;;;;1.07;0.60;;;8.40;99.90;;;;;;5071368;28;20209;-64
2020/12/28 07:09:25;;;;;;;1.80;1.07;;;8.40;99.90;;;;;;5070812;28;20220;-64
2020/12/28 07:11:51;;;;;;;1.03;0.70;;;8.40;99.90;;;;;;5071178;28;20669;-64
2020/12/28 07:14:20;;;;;;;1.00;0.70;;;8.30;99.90;;;;;;5071066;28;20233;-63
2020/12/28 07:16:52;;;;;;;4.50;2.57;;;8.30;99.90;;;;;;5071489;28;20289;-64
2020/12/28 07:19:18;;;;;;;1.17;0.63;;;8.40;99.90;;;;;;5071694;28;20204;-65
2020/12/28 07:21:45;;;;;;;1.53;1.23;;;8.40;99.90;;;;;;5071276;28;20227;-64
2020/12/28 07:24:11;;;;;;;1.30;0.87;;;8.20;99.90;;;;;;5070759;28;20704;-64
2020/12/28 07:26:38;;;;;;;3.10;1.40;;;8.30;99.90;;;;;;5071416;28;20209;-64
2020/12/28 07:29:11;;;;;;;0.67;0.50;;;8.30;99.90;;;;;;5070855;28;20274;-64
2020/12/28 07:31:38;;;;;;;0.77;0.63;;;8.00;99.90;;;;;;5070513;28;20299;-64
2020/12/28 07:34:05;;;;;;;1.07;0.67;;;8.00;99.90;;;;;;5070070;28;20244;-64
2020/12/28 07:36:33;;;;;;;0.67;0.40;;;8.00;99.90;;;;;;5070740;28;20208;-64
2020/12/28 07:39:01;;;;;;;2.63;1.10;;;8.00;99.90;;;;;;5070809;28;20201;-64
2020/12/28 07:41:27;;;;;;;2.50;0.70;;;8.00;99.90;;;;;;5071086;28;20230;-64
2020/12/28 07:43:55;;;;;;;1.03;0.80;;;8.00;99.90;;;;;;5070670;28;20232;-64
2020/12/28 07:46:52;;;;;;;1.47;0.97;;;8.10;99.90;;;;;;5070764;28;20212;-64
2020/12/28 07:49:21;;;;;;;0.53;0.53;;;8.10;99.90;;;;;;5070989;28;20315;-65
2020/12/28 07:51:51;;;;;;;0.73;0.50;;;8.20;99.90;;;;;;5070909;28;20208;-64
2020/12/28 07:54:21;;;;;;;0.70;0.50;;;8.20;99.90;;;;;;5070315;28;20228;-63
2020/12/28 07:56:49;;;;;;;0.63;0.50;;;8.20;99.90;;;;;;5070680;28;20760;-64
2020/12/28 07:59:43;;;;;;;2.43;1.60;;;8.30;99.90;;;;;;5070437;28;20262;-65
2020/12/28 08:02:32;;;;;;;1.60;1.13;;;8.10;99.90;;;;;;5069216;28;20201;-65
2020/12/28 08:05:00;;;;;;;0.63;0.30;;;8.10;99.90;;;;;;5070571;28;20225;-64
2020/12/28 08:07:26;;;;;;;0.60;0.40;;;8.10;99.90;;;;;;5070911;28;20212;-64
2020/12/28 08:09:53;;;;;;;1.20;1.10;;;8.10;99.90;;;;;;5070559;28;20603;-64
2020/12/28 08:12:20;;;;;;;0.83;0.53;;;7.90;99.90;;;;;;5070947;28;20539;-64
2020/12/28 08:14:52;;;;;;;0.73;0.60;;;7.80;99.90;;;;;;5070061;28;20233;-64
2020/12/28 08:17:23;;;;;;;1.40;0.90;;;7.90;99.90;;;;;;5070443;28;20568;-64
2020/12/28 08:19:49;;;;;;;0.83;0.70;;;8.00;99.90;;;;;;5070034;28;20204;-64
2020/12/28 08:22:22;;;;;;;1.33;0.80;;;8.00;99.90;;;;;;5070462;28;20205;-64
2020/12/28 08:24:59;;;;;;;1.00;0.60;;;8.10;99.90;;;;;;5069902;28;20233;-64
2020/12/28 08:27:28;;;;;;;1.43;0.70;;;8.20;99.90;;;;;;5070828;28;20205;-64
2020/12/28 08:29:54;;;;;;;1.80;0.60;;;8.20;99.90;;;;;;5070246;28;20323;-64
2020/12/28 08:32:25;;;;;;;1.80;0.90;;;8.30;99.90;;;;;;5070693;28;20212;-63
2020/12/28 08:34:58;;;;;;;0.97;0.80;;;8.40;99.90;;;;;;5070189;28;20221;-63
2020/12/28 08:37:25;;;;;;;1.73;1.10;;;8.50;99.90;;;;;;5070481;28;20621;-62
2020/12/28 08:39:51;;;;;;;0.50;0.50;;;8.60;99.90;;;;;;5070635;28;20200;-63
2020/12/28 08:42:27;;;;;;;3.43;0.63;;;8.70;99.90;;;;;;5070676;28;20254;-65
2020/12/28 08:44:53;;;;;;;4.10;1.20;;;8.90;99.90;;;;;;5073259;28;20231;-64
2020/12/28 08:47:20;;;;;;;7.63;1.60;;;8.90;99.90;;;;;;5074376;28;20291;-64
2020/12/28 08:49:48;;;;;;;4.17;0.80;;;9.00;99.90;;;;;;5074057;28;20228;-63
2020/12/28 08:52:15;;;;;;;1.90;0.90;;;9.00;99.90;;;;;;5073963;28;20756;-64
2020/12/28 08:54:42;;;;;;;1.20;0.43;;;9.00;99.90;;;;;;5073381;28;20539;-64
2020/12/28 08:57:18;;;;;;;1.67;0.70;;;9.00;99.90;;;;;;5073796;28;20208;-65
2020/12/28 08:59:45;;;;;;;0.73;0.50;;;8.90;99.90;;;;;;5073475;28;20205;-65
2020/12/28 09:02:15;;;;;;;1.50;0.50;;;8.90;99.90;;;;;;5074024;28;20204;-65
2020/12/28 09:04:41;;;;;;;0.93;0.60;;;8.80;99.90;;;;;;5073875;28;20315;-65
2020/12/28 09:07:08;;;;;;;0.53;0.40;;;8.80;99.90;;;;;;5073957;28;20700;-65
2020/12/28 09:09:34;;;;;;;0.70;0.53;;;8.90;99.90;;;;;;5073442;28;20229;-65
2020/12/28 09:12:01;;;;;;;1.00;0.77;;;8.90;99.90;;;;;;5073739;28;20212;-65
2020/12/28 09:14:27;;;;;;;2.80;1.37;;;8.90;99.90;;;;;;5073912;28;20239;-64
2020/12/28 09:16:53;;;;;;;0.77;0.70;;;8.90;99.90;;;;;;5074408;28;20204;-64
2020/12/28 09:19:19;;;;;;;1.60;0.70;;;8.80;99.90;;;;;;5074028;28;20255;-64
2020/12/28 09:21:45;;;;;;;1.40;0.70;;;8.90;99.90;;;;;;5073736;28;20209;-64
2020/12/28 09:24:12;;;;;;;2.27;1.17;;;9.00;99.90;;;;;;5073965;28;20221;-64
2020/12/28 09:26:39;;;;;;;1.30;1.00;;;9.10;99.90;;;;;;5073893;28;20253;-64
2020/12/28 09:29:05;;;;;;;1.00;0.60;;;9.20;99.90;;;;;;5073715;28;20761;-64
2020/12/28 09:31:31;;;;;;;1.10;1.00;;;9.30;99.90;;;;;;5075972;28;20228;-64
2020/12/28 09:33:57;;;;;;;1.33;0.80;;;9.30;99.90;;;;;;5073139;28;20731;-64
2020/12/28 09:36:23;;;;;;;2.67;1.57;;;9.10;99.90;;;;;;5073211;28;20634;-63
2020/12/28 09:38:49;;;;;;;1.30;1.20;;;9.10;99.90;;;;;;5073230;28;20204;-64
2020/12/28 09:41:17;;;;;;;1.20;1.10;;;9.10;99.90;;;;;;5073553;28;20208;-64
2020/12/28 09:43:43;;;;;;;4.03;3.53;;;9.00;99.90;;;;;;5072658;28;20213;-64
2020/12/28 09:46:10;;;;;;;2.33;1.57;;;9.10;99.90;;;;;;5073506;28;20212;-64
2020/12/28 09:48:36;;;;;;;1.43;0.73;;;9.10;99.90;;;;;;5073350;28;20217;-64
2020/12/28 09:51:03;;;;;;;0.60;0.60;;;9.10;99.90;;;;;;5073274;28;20262;-65
2020/12/28 09:53:29;;;;;;;1.03;0.80;;;9.20;99.90;;;;;;5072552;28;20311;-64
2020/12/28 09:55:55;;;;;;;1.50;1.10;;;8.90;99.90;;;;;;5071925;28;20213;-64
2020/12/28 09:58:22;;;;;;;1.10;0.80;;;8.90;99.90;;;;;;5072579;28;20200;-64
2020/12/28 10:00:49;;;;;;;2.23;1.10;;;8.90;99.90;;;;;;5073060;28;20231;-64
2020/12/28 10:03:16;;;;;;;4.17;1.30;;;8.90;99.90;;;;;;5072977;28;20205;-64
2020/12/28 10:05:42;;;;;;;2.27;1.73;;;8.80;99.90;;;;;;5072610;28;20234;-64
2020/12/28 10:08:09;;;;;;;1.70;1.40;;;8.90;99.90;;;;;;5072333;28;20201;-65
2020/12/28 10:10:35;;;;;;;1.87;1.70;;;8.80;99.90;;;;;;5072466;28;20262;-65
2020/12/28 10:13:01;;;;;;;2.13;1.70;;;8.80;99.90;;;;;;5072632;28;20673;-65
2020/12/28 10:15:28;;;;;;;2.43;1.93;;;8.80;99.90;;;;;;5072564;28;20244;-65
2020/12/28 10:18:30;;;;;;;2.90;1.60;;;8.70;99.90;;;;;;5072455;28;20679;-65
2020/12/28 10:20:56;;;;;;;1.70;1.60;;;8.40;99.90;;;;;;5072631;28;20254;-65
2020/12/28 10:23:22;;;;;;;2.60;1.73;;;8.00;99.90;;;;;;5072437;28;20213;-65
2020/12/28 10:25:49;;;;;;;2.27;1.80;;;7.80;99.90;;;;;;5072556;28;20258;-65
2020/12/28 10:28:15;;;;;;;1.50;1.40;;;7.80;99.90;;;;;;5072251;28;20585;-65
2020/12/28 10:30:42;;;;;;;3.27;2.13;;;7.70;99.90;;;;;;5072486;28;20201;-65
2020/12/28 10:33:08;;;;;;;2.87;1.97;;;7.50;99.90;;;;;;5072466;28;20247;-65
2020/12/28 10:35:34;;;;;;;2.73;2.20;;;7.40;99.90;;;;;;5071981;28;20708;-64
2020/12/28 10:38:00;;;;;;;3.33;2.20;;;7.20;99.90;;;;;;5071762;28;20266;-64
2020/12/28 10:40:26;;;;;;;4.30;3.07;;;7.20;99.90;;;;;;5072329;28;20201;-65
2020/12/28 10:42:53;;;;;;;4.17;3.73;;;7.30;99.90;;;;;;5072055;28;20688;-65
2020/12/28 10:45:19;;;;;;;4.40;4.00;;;7.40;99.90;;;;;;5071834;28;20232;-65
2020/12/28 10:47:46;;;;;;;3.87;2.87;;;7.40;99.90;;;;;;5071810;28;20205;-65
2020/12/28 10:50:12;;;;;;;4.43;3.23;;;7.40;99.90;;;;;;5072257;28;20229;-65
2020/12/28 10:52:38;;;;;;;4.87;3.60;;;7.30;99.90;;;;;;5072531;28;20209;-65
2020/12/28 10:55:04;;;;;;;4.37;2.83;;;7.20;99.90;;;;;;5071968;28;20290;-69
2020/12/28 10:57:30;;;;;;;3.37;2.70;;;7.30;99.90;;;;;;5072220;28;20205;-64
2020/12/28 10:59:56;;;;;;;4.17;2.90;;;7.30;99.90;;;;;;5072104;28;20204;-65
2020/12/28 11:02:23;;;;;;;5.83;3.47;;;7.40;99.90;;;;;;5071708;28;20212;-65
2020/12/28 11:04:50;;;;;;;4.03;3.27;;;7.50;99.90;;;;;;5071263;28;20231;-65
2020/12/28 11:07:16;;;;;;;4.27;3.20;;;7.60;99.90;;;;;;5071742;28;20232;-65
2020/12/28 11:09:42;;;;;;;4.73;2.60;;;7.80;99.90;;;;;;5071530;28;20270;-65
2020/12/28 11:12:08;;;;;;;5.67;2.93;;;7.90;99.90;;;;;;5072197;28;20580;-65
2020/12/28 11:14:34;;;;;;;2.40;2.00;;;8.10;99.90;;;;;;5071349;28;20233;-65
2020/12/28 11:17:02;;;;;;;3.57;2.27;;;8.30;99.90;;;;;;5071833;28;20228;-65
2020/12/28 11:19:28;;;;;;;3.63;2.60;;;8.40;99.90;;;;;;5071174;28;20684;-65
2020/12/28 11:21:55;;;;;;;4.40;2.70;;;8.60;99.90;;;;;;5071572;28;20209;-64
2020/12/28 11:24:21;;;;;;;3.90;2.80;;;8.60;99.90;;;;;;5071237;28;20260;-63
2020/12/28 11:26:49;;;;;;;3.97;2.90;;;8.70;99.90;;;;;;5071304;28;20208;-65
2020/12/28 11:29:15;;;;;;;3.90;2.53;;;8.70;99.90;;;;;;5071089;28;20221;-65
2020/12/28 11:31:41;;;;;;;3.60;2.40;;;8.80;99.90;;;;;;5071612;28;20208;-65
2020/12/28 11:34:07;;;;;;;2.10;1.83;;;8.90;99.90;;;;;;5070959;28;20225;-65
2020/12/28 11:36:33;;;;;;;2.50;2.00;;;9.00;99.90;;;;;;5071512;28;20209;-65
2020/12/28 11:39:00;;;;;;;5.23;2.23;;;9.10;99.90;;;;;;5070796;28;20201;-64
2020/12/28 11:41:27;;;;;;;2.10;1.60;;;9.10;99.90;;;;;;5071177;28;20639;-64
2020/12/28 11:43:53;;;;;;;2.63;1.83;;;9.00;99.90;;;;;;5071174;28;20308;-64
2020/12/28 11:46:19;;;;;;;3.07;1.90;;;9.20;99.90;;;;;;5071208;28;20209;-65
2020/12/28 11:48:46;;;;;;;3.90;1.97;;;9.30;99.90;;;;;;5070690;28;20696;-64
2020/12/28 11:51:12;;;;;;;5.10;2.73;;;9.40;99.90;;;;;;5070977;28;20204;-64
2020/12/28 11:53:38;;;;;;;4.57;3.70;;;9.30;99.90;;;;;;5070717;28;20254;-64
2020/12/28 11:56:11;;;;;;;5.10;3.40;;;9.10;99.90;;;;;;5071097;28;20205;-63
2020/12/28 11:58:41;;;;;;;5.23;3.83;;;8.90;99.90;;;;;;5070825;28;20240;-60
2020/12/28 12:01:12;;;;;;;4.87;3.60;;;8.50;99.90;;;;;;5070844;28;20204;-60
2020/12/28 12:03:38;;;;;;;5.63;3.33;;;8.30;99.90;;;;;;5070703;28;20300;-60
2020/12/28 12:06:04;;;;;;;4.97;3.50;;;8.00;99.90;;;;;;5071217;28;20586;-61
2020/12/28 12:08:31;;;;;;;6.03;3.67;;;7.80;99.90;;;;;;5070798;28;20216;-61
2020/12/28 12:10:57;;;;;;;5.17;3.67;;;7.70;99.90;;;;;;5070977;28;20209;-61
2020/12/28 12:13:24;;;;;;;5.17;3.60;;;7.70;99.90;;;;;;5070439;28;20204;-61
2020/12/28 12:15:52;;;;;;;5.33;3.67;;;7.50;99.90;;;;;;5070553;28;20265;-62
2020/12/28 12:18:18;;;;;;;4.47;3.47;;;7.40;99.90;;;;;;5070023;28;20208;-61
2020/12/28 12:20:44;;;;;;;5.83;4.10;;;7.30;99.90;;;;;;5070862;28;20303;-61
2020/12/28 12:23:10;;;;;;;6.97;3.80;;;7.30;99.90;;;;;;5070584;28;20668;-61
2020/12/28 12:25:37;;;;;;;5.30;3.53;;;7.30;99.90;;;;;;5070012;28;20232;-61
2020/12/28 12:28:03;;;;;;;8.30;4.00;;;7.20;99.90;;;;;;5070155;28;20212;-61
2020/12/28 12:30:30;;;;;;;4.60;3.73;;;7.10;99.90;;;;;;5070486;28;20785;-61
2020/12/28 12:32:59;;;;;;;5.20;3.70;;;7.00;99.90;;;;;;5070669;28;20294;-61
2020/12/28 12:35:25;;;;;;;5.17;3.77;;;7.10;99.90;;;;;;5070591;28;20315;-62
2020/12/28 12:37:52;;;;;;;5.43;3.80;;;7.00;99.90;;;;;;5070272;28;20228;-62
2020/12/28 12:40:18;;;;;;;5.33;3.50;;;7.10;99.90;;;;;;5070612;28;20201;-61
2020/12/28 12:42:44;;;;;;;4.60;3.17;;;7.10;99.90;;;;;;5070802;28;20254;-62
2020/12/28 12:45:10;;;;;;;4.67;3.60;;;7.10;99.90;;;;;;5070200;28;20227;-62
2020/12/28 12:47:37;;;;;;;5.80;3.50;;;7.20;99.90;;;;;;5070333;28;20215;-62
2020/12/28 12:50:04;;;;;;;5.60;3.93;;;7.10;99.90;;;;;;5070053;28;20233;-62
2020/12/28 12:52:30;;;;;;;4.23;3.50;;;7.20;99.90;;;;;;5070375;28;20375;-62
2020/12/28 12:54:56;;;;;;;5.43;3.63;;;7.30;99.90;;;;;;5070536;28;20235;-61
2020/12/28 12:57:22;;;;;;;6.07;3.83;;;7.30;99.90;;;;;;5070392;28;20205;-61